Time;durP1;ratioP1;P1;durP2;ratioP2;P2;SDS_P1;SDS_P2;PMS_P1;PMS_P2;Temp;Humidity;BMP_temperature;BMP_pressure;BME280_temperature;BME280_humidity;BME280_pressure;Samples;Min_cycle;Max_cycle;Signal;HPM_P1;HPM_P2
2021/01/15 00:01:06;;;;;;;6.37;5.77;;;5.10;33.80;;;;;;5010804;28;20232;-65
2021/01/15 00:03:33;;;;;;;6.77;6.13;;;5.10;33.80;;;;;;5010916;28;20423;-65
2021/01/15 00:05:59;;;;;;;7.17;6.57;;;5.10;33.50;;;;;;5010887;28;21213;-65
2021/01/15 00:08:24;;;;;;;7.10;6.50;;;5.10;33.50;;;;;;5010786;28;20418;-64
2021/01/15 00:10:49;;;;;;;8.27;7.40;;;5.10;33.70;;;;;;5010902;28;20170;-65
2021/01/15 00:13:15;;;;;;;6.70;6.10;;;5.10;33.50;;;;;;5010687;28;20224;-65
2021/01/15 00:15:40;;;;;;;7.07;6.40;;;5.00;33.50;;;;;;5010558;28;20284;-66
2021/01/15 00:18:06;;;;;;;6.37;5.87;;;5.00;33.80;;;;;;5010521;28;20177;-65
2021/01/15 00:20:31;;;;;;;6.97;6.40;;;5.00;33.40;;;;;;5010638;28;20656;-64
2021/01/15 00:22:57;;;;;;;6.83;6.23;;;5.00;33.20;;;;;;5010704;28;20188;-65
2021/01/15 00:25:22;;;;;;;7.20;6.60;;;4.90;33.30;;;;;;5010643;28;20606;-65
2021/01/15 00:27:48;;;;;;;7.20;6.50;;;4.90;33.40;;;;;;5010481;28;20216;-65
2021/01/15 00:30:14;;;;;;;7.40;6.70;;;4.90;33.40;;;;;;5010605;28;20178;-64
2021/01/15 00:32:39;;;;;;;7.00;6.30;;;5.00;33.10;;;;;;5010576;28;20651;-65
2021/01/15 00:35:07;;;;;;;10.50;6.17;;;4.90;33.50;;;;;;5010588;28;20194;-64
2021/01/15 00:37:33;;;;;;;8.43;6.27;;;5.00;33.30;;;;;;5010464;28;20169;-65
2021/01/15 00:39:59;;;;;;;6.97;6.37;;;5.00;33.30;;;;;;5010386;28;20447;-65
2021/01/15 00:42:25;;;;;;;7.27;5.60;;;5.20;32.70;;;;;;5011530;28;20918;-64
2021/01/15 00:44:55;;;;;;;6.03;5.47;;;5.30;32.20;;;;;;5013982;28;20239;-65
2021/01/15 00:47:21;;;;;;;8.47;6.07;;;5.20;32.30;;;;;;5013815;28;20584;-65
2021/01/15 00:49:46;;;;;;;6.03;5.53;;;5.20;32.80;;;;;;5013949;28;20436;-66
2021/01/15 00:52:12;;;;;;;6.03;5.47;;;5.30;31.60;;;;;;5013880;28;20415;-64
2021/01/15 00:54:37;;;;;;;6.53;5.60;;;5.30;31.60;;;;;;5013794;28;20699;-65
2021/01/15 00:57:03;;;;;;;7.23;6.07;;;5.10;31.60;;;;;;5013799;28;20181;-63
2021/01/15 00:59:28;;;;;;;5.37;5.00;;;5.10;32.40;;;;;;5013763;28;20671;-65
2021/01/15 01:01:54;;;;;;;6.40;5.80;;;5.10;31.70;;;;;;5013723;28;20205;-65
2021/01/15 01:04:19;;;;;;;6.03;5.43;;;5.10;31.70;;;;;;5013687;28;20192;-63
2021/01/15 01:06:46;;;;;;;6.40;5.73;;;5.10;32.00;;;;;;5013616;28;20539;-64
2021/01/15 01:09:11;;;;;;;4.83;4.40;;;5.20;31.50;;;;;;5013565;28;20173;-63
2021/01/15 01:11:37;;;;;;;5.40;4.90;;;4.90;31.60;;;;;;5013637;28;20470;-65
2021/01/15 01:14:06;;;;;;;5.60;4.47;;;4.80;31.40;;;;;;5013517;28;20177;-65
2021/01/15 01:16:32;;;;;;;5.03;4.53;;;4.80;31.90;;;;;;5013578;28;20280;-65
2021/01/15 01:18:58;;;;;;;5.10;4.70;;;4.70;31.50;;;;;;5013351;28;20420;-65
2021/01/15 01:21:25;;;;;;;4.70;4.40;;;4.70;32.20;;;;;;5013681;28;20951;-66
2021/01/15 01:23:51;;;;;;;5.03;4.10;;;4.70;31.90;;;;;;5013387;28;20467;-66
2021/01/15 01:26:16;;;;;;;3.90;3.70;;;4.60;31.90;;;;;;5013361;28;20902;-65
2021/01/15 01:28:42;;;;;;;4.43;4.03;;;4.50;32.40;;;;;;5013051;28;20401;-66
2021/01/15 01:31:13;;;;;;;5.17;4.70;;;4.70;33.10;;;;;;5013311;28;20419;-65
2021/01/15 01:33:39;;;;;;;5.07;4.57;;;4.70;31.80;;;;;;5013369;28;20547;-65
2021/01/15 01:36:05;;;;;;;4.23;3.90;;;4.70;30.70;;;;;;5013121;28;20947;-66
2021/01/15 01:38:31;;;;;;;3.67;3.47;;;4.60;31.40;;;;;;5012925;28;20412;-65
2021/01/15 01:40:58;;;;;;;3.87;3.53;;;4.60;31.90;;;;;;5013035;28;20463;-65
2021/01/15 01:43:24;;;;;;;4.30;4.00;;;4.70;31.90;;;;;;5012823;28;20413;-64
2021/01/15 01:45:49;;;;;;;5.70;4.00;;;4.70;31.20;;;;;;5013023;28;20428;-64
2021/01/15 01:48:15;;;;;;;4.43;4.03;;;4.80;31.30;;;;;;5012705;28;20643;-65
2021/01/15 01:50:41;;;;;;;4.80;3.90;;;4.90;31.50;;;;;;5012898;28;20316;-66
2021/01/15 01:53:12;;;;;;;3.70;3.20;;;5.00;30.40;;;;;;5012614;28;20499;-65
2021/01/15 01:55:38;;;;;;;5.87;3.67;;;4.80;30.10;;;;;;5013193;28;21084;-65
2021/01/15 01:58:04;;;;;;;9.50;4.00;;;4.70;30.40;;;;;;5012393;28;20440;-65
2021/01/15 02:00:30;;;;;;;3.43;3.20;;;4.50;30.90;;;;;;5012549;28;20942;-65
2021/01/15 02:02:55;;;;;;;4.10;3.90;;;4.80;32.20;;;;;;5012557;28;20414;-63
2021/01/15 02:05:21;;;;;;;9.03;5.53;;;4.70;31.10;;;;;;5012521;28;20194;-65
2021/01/15 02:07:50;;;;;;;3.33;3.13;;;4.60;31.00;;;;;;5012354;28;20181;-65
2021/01/15 02:10:44;;;;;;;4.20;3.80;;;4.70;30.80;;;;;;5012556;28;20181;-65
2021/01/15 02:13:24;;;;;;;4.10;3.70;;;4.50;30.50;;;;;;5012129;28;20424;-65
2021/01/15 02:16:03;;;;;;;3.33;3.10;;;4.50;31.80;;;;;;5012320;28;20443;-65
2021/01/15 02:18:34;;;;;;;3.70;3.50;;;4.60;30.60;;;;;;5012736;28;20539;-65
2021/01/15 02:21:25;;;;;;;5.37;4.40;;;4.60;30.50;;;;;;5012034;28;20491;-64
2021/01/15 02:23:51;;;;;;;3.30;3.10;;;4.70;29.90;;;;;;5012120;28;20501;-65
2021/01/15 02:26:56;;;;;;;3.50;3.20;;;4.60;30.20;;;;;;5012117;28;21014;-65
2021/01/15 02:29:27;;;;;;;5.37;4.10;;;4.60;30.30;;;;;;5011907;28;20179;-65
2021/01/15 02:32:20;;;;;;;3.77;3.57;;;4.50;30.50;;;;;;5012248;28;20809;-65
2021/01/15 02:35:23;;;;;;;4.07;3.70;;;4.50;31.00;;;;;;5011988;28;20428;-65
2021/01/15 02:37:58;;;;;;;3.60;3.30;;;4.60;30.50;;;;;;5011686;28;20415;-64
2021/01/15 02:40:47;;;;;;;3.37;3.17;;;4.50;30.40;;;;;;5011984;28;20546;-64
2021/01/15 02:43:14;;;;;;;4.33;3.93;;;4.60;30.80;;;;;;5011753;28;20503;-64
2021/01/15 02:45:41;;;;;;;3.60;3.40;;;4.60;29.90;;;;;;5011724;28;20515;-65
2021/01/15 02:48:14;;;;;;;4.30;3.73;;;4.50;30.00;;;;;;5012152;28;20412;-65
2021/01/15 02:50:40;;;;;;;4.57;4.10;;;4.40;29.90;;;;;;5011989;28;20503;-65
2021/01/15 02:53:06;;;;;;;3.93;3.50;;;4.40;29.80;;;;;;5011810;28;20967;-64
2021/01/15 02:55:32;;;;;;;5.13;3.60;;;4.40;29.80;;;;;;5011728;28;20236;-65
2021/01/15 02:57:57;;;;;;;5.00;3.60;;;4.20;30.00;;;;;;5011498;28;20448;-64
2021/01/15 03:00:23;;;;;;;4.20;3.37;;;4.20;30.20;;;;;;5011578;28;20266;-64
2021/01/15 03:03:16;;;;;;;4.00;3.70;;;4.20;30.30;;;;;;5011478;28;20598;-64
2021/01/15 03:05:50;;;;;;;3.50;3.30;;;4.30;30.00;;;;;;5010849;28;20460;-64
2021/01/15 03:08:19;;;;;;;3.83;3.50;;;4.30;30.00;;;;;;5011299;28;20440;-63
2021/01/15 03:10:46;;;;;;;3.50;3.30;;;4.40;29.80;;;;;;5011347;28;20559;-64
2021/01/15 03:13:14;;;;;;;4.00;3.70;;;4.40;29.60;;;;;;5011250;28;20494;-63
2021/01/15 03:15:40;;;;;;;3.20;3.00;;;4.50;29.90;;;;;;5011249;28;20593;-63
2021/01/15 03:18:06;;;;;;;3.47;3.27;;;4.40;29.60;;;;;;5011334;28;20466;-63
2021/01/15 03:20:32;;;;;;;3.83;3.53;;;4.40;29.20;;;;;;5011166;28;20538;-63
2021/01/15 03:22:58;;;;;;;2.80;2.60;;;4.20;29.20;;;;;;5011187;28;20488;-64
2021/01/15 03:25:24;;;;;;;4.00;3.70;;;4.00;29.90;;;;;;5011076;28;20288;-63
2021/01/15 03:27:52;;;;;;;3.67;3.37;;;4.00;30.00;;;;;;5011290;28;20193;-64
2021/01/15 03:30:26;;;;;;;3.83;3.40;;;4.10;30.00;;;;;;5011130;28;20185;-63
2021/01/15 03:32:57;;;;;;;4.00;3.60;;;4.10;29.90;;;;;;5011176;28;20417;-64
2021/01/15 03:35:23;;;;;;;3.50;3.20;;;4.10;30.00;;;;;;5010942;28;20443;-64
2021/01/15 03:38:09;;;;;;;4.30;3.40;;;4.10;29.90;;;;;;5010889;28;20412;-64
2021/01/15 03:40:37;;;;;;;3.57;3.27;;;4.20;29.90;;;;;;5011095;28;20468;-63
2021/01/15 03:43:14;;;;;;;3.97;3.67;;;4.10;29.70;;;;;;5011169;28;20447;-64
2021/01/15 03:45:41;;;;;;;4.63;4.33;;;3.90;30.10;;;;;;5010980;28;20440;-64
2021/01/15 03:48:08;;;;;;;4.00;3.63;;;3.90;30.20;;;;;;5010892;28;20466;-64
2021/01/15 03:50:35;;;;;;;3.70;3.50;;;3.90;30.50;;;;;;5010947;28;20420;-64
2021/01/15 03:53:01;;;;;;;3.97;3.67;;;3.80;30.30;;;;;;5011110;28;20445;-64
2021/01/15 03:55:26;;;;;;;3.80;3.50;;;3.90;30.40;;;;;;5010974;28;20466;-63
2021/01/15 03:57:52;;;;;;;4.30;3.90;;;3.80;30.30;;;;;;5010824;28;20251;-64
2021/01/15 04:00:18;;;;;;;3.40;3.20;;;3.70;30.40;;;;;;5010832;28;20201;-63
2021/01/15 04:02:43;;;;;;;4.93;4.50;;;3.70;31.20;;;;;;5010826;28;20232;-63
2021/01/15 04:05:11;;;;;;;3.77;3.57;;;3.90;31.10;;;;;;5010572;28;20776;-63
2021/01/15 04:07:37;;;;;;;5.93;5.03;;;3.80;30.90;;;;;;5010874;28;20188;-64
2021/01/15 04:10:04;;;;;;;5.90;3.93;;;3.70;31.10;;;;;;5010690;28;20502;-64
2021/01/15 04:12:30;;;;;;;4.13;3.83;;;3.90;31.10;;;;;;5010645;28;20205;-63
2021/01/15 04:14:55;;;;;;;4.43;4.03;;;3.80;30.10;;;;;;5010702;28;20783;-63
2021/01/15 04:17:22;;;;;;;5.63;4.23;;;3.90;30.80;;;;;;5013201;28;20423;-63
2021/01/15 04:19:48;;;;;;;4.00;3.60;;;3.80;30.50;;;;;;5014419;28;20177;-64
2021/01/15 04:22:13;;;;;;;5.13;4.00;;;3.80;30.60;;;;;;5014417;28;20408;-64
2021/01/15 04:24:39;;;;;;;4.20;4.00;;;3.80;31.30;;;;;;5014255;28;20193;-65
2021/01/15 04:27:05;;;;;;;5.13;4.63;;;4.00;30.30;;;;;;5014219;28;20176;-64
2021/01/15 04:29:30;;;;;;;4.70;4.30;;;4.00;30.30;;;;;;5014282;28;20181;-63
2021/01/15 04:31:56;;;;;;;5.30;4.40;;;3.90;30.50;;;;;;5014346;28;20177;-63
2021/01/15 04:34:21;;;;;;;4.50;4.10;;;3.80;30.50;;;;;;5014912;28;20570;-64
2021/01/15 04:36:47;;;;;;;5.27;4.40;;;3.90;30.60;;;;;;5014090;28;20200;-65
2021/01/15 04:39:13;;;;;;;5.53;5.10;;;3.90;31.60;;;;;;5013979;28;20177;-64
2021/01/15 04:41:42;;;;;;;4.83;4.40;;;4.00;30.30;;;;;;5014224;28;20241;-65
2021/01/15 04:44:08;;;;;;;9.30;4.53;;;3.90;30.50;;;;;;5014156;28;20408;-64
2021/01/15 04:46:35;;;;;;;5.37;4.97;;;4.00;30.20;;;;;;5014082;28;20436;-63
2021/01/15 04:49:03;;;;;;;5.00;4.63;;;3.80;30.50;;;;;;5013799;28;20169;-65
2021/01/15 04:51:29;;;;;;;5.90;4.63;;;3.80;31.50;;;;;;5014049;28;20415;-65
2021/01/15 04:54:00;;;;;;;4.93;4.50;;;3.60;30.90;;;;;;5014051;28;20780;-65
2021/01/15 04:56:39;;;;;;;7.30;4.57;;;3.50;31.90;;;;;;5013886;28;20519;-65
2021/01/15 04:59:08;;;;;;;4.97;4.57;;;3.70;31.20;;;;;;5013740;28;20535;-64
2021/01/15 05:01:41;;;;;;;5.73;5.33;;;3.60;31.90;;;;;;5013738;28;20459;-65
2021/01/15 05:04:12;;;;;;;6.40;5.93;;;3.70;31.80;;;;;;5013804;28;20446;-63
2021/01/15 05:06:45;;;;;;;5.37;4.97;;;3.80;31.20;;;;;;5013671;28;20490;-65
2021/01/15 05:09:12;;;;;;;6.70;4.97;;;3.80;31.20;;;;;;5013369;28;20408;-63
2021/01/15 05:11:38;;;;;;;4.83;4.43;;;3.70;31.90;;;;;;5013530;28;20910;-64
2021/01/15 05:14:09;;;;;;;5.73;5.23;;;3.90;32.10;;;;;;5013486;28;20412;-63
2021/01/15 05:16:37;;;;;;;5.60;4.70;;;3.90;31.00;;;;;;5013287;28;20201;-64
2021/01/15 05:19:03;;;;;;;5.23;4.87;;;3.90;31.40;;;;;;5013124;28;20423;-64
2021/01/15 05:21:29;;;;;;;5.40;4.93;;;3.80;31.10;;;;;;5013576;28;20954;-64
2021/01/15 05:23:55;;;;;;;5.40;4.97;;;3.90;31.70;;;;;;5013123;28;21006;-64
2021/01/15 05:26:23;;;;;;;6.50;6.00;;;3.70;31.90;;;;;;5013140;28;20516;-64
2021/01/15 05:28:49;;;;;;;4.70;4.50;;;3.70;31.90;;;;;;5012400;28;20260;-64
2021/01/15 05:31:15;;;;;;;6.40;5.90;;;3.80;32.00;;;;;;5013144;28;20431;-65
2021/01/15 05:33:40;;;;;;;5.13;4.63;;;3.80;32.60;;;;;;5013432;28;20507;-64
2021/01/15 05:36:06;;;;;;;5.13;4.73;;;3.60;32.50;;;;;;5012944;28;20886;-66
2021/01/15 05:38:32;;;;;;;4.80;4.30;;;3.60;32.20;;;;;;5012781;28;20181;-64
2021/01/15 05:40:57;;;;;;;4.60;4.20;;;3.60;32.30;;;;;;5012958;28;20405;-64
2021/01/15 05:43:33;;;;;;;5.03;4.60;;;3.70;31.60;;;;;;5014210;28;20253;-63
2021/01/15 05:46:18;;;;;;;5.83;5.23;;;3.60;31.60;;;;;;5012965;28;20433;-63
2021/01/15 05:48:53;;;;;;;5.93;5.53;;;3.90;31.00;;;;;;5013347;28;20777;-65
2021/01/15 05:51:30;;;;;;;6.03;5.60;;;3.80;31.10;;;;;;5012980;28;20410;-63
2021/01/15 05:53:57;;;;;;;14.37;7.33;;;3.80;31.10;;;;;;5013113;28;20416;-64
2021/01/15 05:56:24;;;;;;;5.00;4.70;;;3.90;31.70;;;;;;5013044;28;20527;-63
2021/01/15 05:59:10;;;;;;;5.10;4.70;;;3.80;30.50;;;;;;5012714;28;20419;-63
2021/01/15 06:01:46;;;;;;;4.83;4.47;;;3.80;30.70;;;;;;5012941;28;20576;-63
2021/01/15 06:04:13;;;;;;;5.70;5.30;;;3.80;30.70;;;;;;5012940;28;20396;-63
2021/01/15 06:06:40;;;;;;;5.73;5.23;;;3.90;30.70;;;;;;5012678;28;20428;-63
2021/01/15 06:09:07;;;;;;;5.03;4.63;;;3.80;30.20;;;;;;5012502;28;20412;-63
2021/01/15 06:11:40;;;;;;;5.80;5.30;;;3.70;30.30;;;;;;5012487;28;20412;-64
2021/01/15 06:14:21;;;;;;;5.40;5.00;;;3.60;30.50;;;;;;5012419;28;20409;-63
2021/01/15 06:16:46;;;;;;;5.17;4.77;;;3.60;30.50;;;;;;5012486;28;20456;-64
2021/01/15 06:19:12;;;;;;;5.73;5.10;;;3.20;30.90;;;;;;5012172;28;20846;-64
2021/01/15 06:21:48;;;;;;;8.33;5.40;;;3.20;30.80;;;;;;5012265;28;20213;-64
2021/01/15 06:24:20;;;;;;;6.03;5.43;;;3.20;31.40;;;;;;5012397;28;20569;-64
2021/01/15 06:27:05;;;;;;;5.70;5.30;;;3.20;31.60;;;;;;5012011;28;20801;-63
2021/01/15 06:29:42;;;;;;;5.60;5.10;;;3.40;31.30;;;;;;5012364;28;20412;-63
2021/01/15 06:32:09;;;;;;;5.47;4.90;;;3.40;31.50;;;;;;5012136;28;20474;-64
2021/01/15 06:34:45;;;;;;;5.53;5.03;;;3.50;30.40;;;;;;5011914;28;20832;-63
2021/01/15 06:37:18;;;;;;;4.67;4.37;;;3.40;30.40;;;;;;5011861;28;20910;-63
2021/01/15 06:40:05;;;;;;;6.10;5.17;;;3.20;30.90;;;;;;5011103;28;20424;-63
2021/01/15 06:42:31;;;;;;;7.50;5.53;;;3.20;31.10;;;;;;5011954;28;20518;-66
2021/01/15 06:44:59;;;;;;;5.50;4.70;;;3.00;32.10;;;;;;5011735;28;20535;-63
2021/01/15 06:47:34;;;;;;;5.53;5.13;;;3.00;31.70;;;;;;5012044;28;20761;-64
2021/01/15 06:50:02;;;;;;;5.90;5.40;;;3.00;31.40;;;;;;5011760;28;20398;-64
2021/01/15 06:52:27;;;;;;;7.90;5.67;;;3.10;31.00;;;;;;5011799;28;20774;-64
2021/01/15 06:54:55;;;;;;;5.70;5.30;;;3.20;31.10;;;;;;5011952;28;20412;-63
2021/01/15 06:57:28;;;;;;;5.67;5.13;;;3.30;31.10;;;;;;5011788;28;20172;-65
2021/01/15 06:59:56;;;;;;;5.77;5.17;;;3.20;31.20;;;;;;5011716;28;20483;-63
2021/01/15 07:02:48;;;;;;;5.60;5.20;;;3.10;32.00;;;;;;5011485;28;20440;-64
2021/01/15 07:05:15;;;;;;;5.80;5.30;;;3.40;30.80;;;;;;5011451;28;20570;-64
2021/01/15 07:07:42;;;;;;;6.03;5.40;;;3.20;31.30;;;;;;5011263;28;20798;-64
2021/01/15 07:10:08;;;;;;;6.73;6.10;;;3.40;31.90;;;;;;5011391;28;20409;-64
2021/01/15 07:12:41;;;;;;;5.10;4.60;;;3.60;31.30;;;;;;5011303;28;20410;-64
2021/01/15 07:15:13;;;;;;;6.73;6.03;;;3.50;30.30;;;;;;5011582;28;20431;-64
2021/01/15 07:17:47;;;;;;;6.03;4.83;;;3.30;31.10;;;;;;5018036;28;20397;-62
2021/01/15 07:20:18;;;;;;;5.20;4.80;;;4.90;42.90;;;;;;5024507;28;20566;-65
2021/01/15 07:22:50;;;;;;;5.23;4.80;;;4.90;35.10;;;;;;5022196;28;20454;-64
2021/01/15 07:25:17;;;;;;;5.00;4.60;;;5.60;37.50;;;;;;5017219;28;20495;-65
2021/01/15 07:27:43;;;;;;;6.00;5.00;;;7.10;45.10;;;;;;5012426;28;20854;-64
2021/01/15 07:30:14;;;;;;;5.13;4.73;;;9.50;34.10;;;;;;5011412;28;20428;-66
2021/01/15 07:32:40;;;;;;;9.30;6.00;;;9.70;34.50;;;;;;5011105;28;20189;-66
2021/01/15 07:35:12;;;;;;;5.30;4.90;;;8.70;29.10;;;;;;5011643;28;20437;-67
2021/01/15 07:37:37;;;;;;;7.83;5.20;;;8.10;30.30;;;;;;5011019;28;20490;-66
2021/01/15 07:40:20;;;;;;;5.33;4.90;;;9.00;31.30;;;;;;5010728;28;20511;-66
2021/01/15 07:42:51;;;;;;;5.90;5.27;;;9.00;27.00;;;;;;5011245;28;20162;-67
2021/01/15 07:45:23;;;;;;;5.60;5.20;;;9.60;29.90;;;;;;5011940;28;20435;-67
2021/01/15 07:47:52;;;;;;;5.73;5.17;;;10.10;28.30;;;;;;5013102;28;20928;-65
2021/01/15 07:50:34;;;;;;;7.95;7.25;;;10.20;26.90;;;;;;5009895;28;20430;-65
2021/01/15 07:53:06;;;;;;;7.60;6.90;;;7.90;21.80;;;;;;5014902;28;20173;-65
2021/01/15 07:55:53;;;;;;;7.23;6.63;;;6.60;23.70;;;;;;5014821;28;20440;-65
2021/01/15 07:58:23;;;;;;;9.43;7.60;;;5.70;25.90;;;;;;5014492;28;20895;-65
2021/01/15 08:00:50;;;;;;;8.50;7.57;;;4.90;27.10;;;;;;5013001;28;20473;-65
2021/01/15 08:03:15;;;;;;;8.40;7.67;;;4.70;28.00;;;;;;5018825;28;20428;-66
2021/01/15 08:05:43;;;;;;;8.57;7.47;;;4.40;28.70;;;;;;5014617;28;20794;-66
2021/01/15 08:08:17;;;;;;;15.70;8.47;;;4.40;29.10;;;;;;5014882;28;20719;-66
2021/01/15 08:10:45;;;;;;;7.73;7.03;;;4.20;29.40;;;;;;5014991;28;20926;-64
2021/01/15 08:13:21;;;;;;;9.57;8.50;;;4.10;29.30;;;;;;5014676;28;20423;-64
2021/01/15 08:15:47;;;;;;;8.80;8.03;;;4.10;29.70;;;;;;5014883;28;20494;-64
2021/01/15 08:18:14;;;;;;;8.50;7.50;;;4.00;30.20;;;;;;5014895;28;20415;-65
2021/01/15 08:20:44;;;;;;;8.80;7.17;;;4.10;29.50;;;;;;5014309;28;20460;-65
2021/01/15 08:23:20;;;;;;;8.33;6.70;;;4.10;29.60;;;;;;5014381;28;20911;-65
2021/01/15 08:25:47;;;;;;;8.17;7.10;;;3.70;29.90;;;;;;5014987;28;20432;-65
2021/01/15 08:28:13;;;;;;;7.90;7.20;;;3.70;30.40;;;;;;5014299;28;20412;-65
2021/01/15 08:30:38;;;;;;;9.10;8.20;;;3.60;30.50;;;;;;5014324;28;20426;-65
2021/01/15 08:33:05;;;;;;;9.20;7.33;;;3.60;30.10;;;;;;5014175;28;20279;-67
2021/01/15 08:35:31;;;;;;;10.57;8.00;;;3.60;30.70;;;;;;5012842;28;20751;-64
2021/01/15 08:37:57;;;;;;;11.73;8.03;;;3.80;30.90;;;;;;5012783;28;20510;-64
2021/01/15 08:40:28;;;;;;;8.43;7.73;;;3.90;30.00;;;;;;5013834;28;20267;-65
2021/01/15 08:42:55;;;;;;;10.00;8.10;;;3.60;30.80;;;;;;5013979;28;20416;-65
2021/01/15 08:45:28;;;;;;;10.67;9.77;;;3.70;30.40;;;;;;5014070;28;20518;-65
2021/01/15 08:47:55;;;;;;;9.83;6.53;;;3.50;30.70;;;;;;5013492;28;20500;-65
2021/01/15 08:50:22;;;;;;;8.23;7.53;;;3.30;30.90;;;;;;5013636;28;20938;-64
2021/01/15 08:52:49;;;;;;;8.40;7.60;;;3.30;31.50;;;;;;5014280;28;20483;-65
2021/01/15 08:55:17;;;;;;;11.67;8.47;;;3.50;30.70;;;;;;5013657;28;20953;-65
2021/01/15 08:57:43;;;;;;;12.37;7.63;;;3.60;31.00;;;;;;5013694;28;20473;-65
2021/01/15 09:00:10;;;;;;;8.20;7.50;;;3.70;30.30;;;;;;5013358;28;20416;-64
2021/01/15 09:02:40;;;;;;;9.33;8.43;;;3.70;30.60;;;;;;5012881;28;20416;-64
2021/01/15 09:05:11;;;;;;;9.97;9.07;;;3.70;30.90;;;;;;5013584;28;20987;-65
2021/01/15 09:07:56;;;;;;;14.83;8.33;;;3.70;30.00;;;;;;5013397;28;20412;-64
2021/01/15 09:10:21;;;;;;;9.07;8.10;;;3.80;30.00;;;;;;5013660;28;20474;-65
2021/01/15 09:12:48;;;;;;;9.47;8.47;;;3.90;30.40;;;;;;5013623;28;20491;-66
2021/01/15 09:15:24;;;;;;;18.83;9.47;;;3.70;30.20;;;;;;5013407;28;20227;-64
2021/01/15 09:17:51;;;;;;;9.63;8.67;;;3.80;30.50;;;;;;5013220;28;20886;-63
2021/01/15 09:20:17;;;;;;;9.20;8.30;;;3.80;30.00;;;;;;5013287;28;20455;-65
2021/01/15 09:22:43;;;;;;;9.70;8.80;;;3.70;30.00;;;;;;5013271;28;20895;-66
2021/01/15 09:25:13;;;;;;;9.00;8.20;;;3.80;30.00;;;;;;5013933;28;20456;-65
2021/01/15 09:27:39;;;;;;;10.77;8.57;;;3.80;30.70;;;;;;5012773;28;20412;-65
2021/01/15 09:30:05;;;;;;;9.30;8.33;;;3.90;30.00;;;;;;5013001;28;20795;-64
2021/01/15 09:32:31;;;;;;;9.17;8.27;;;3.90;30.10;;;;;;5013722;28;20231;-64
2021/01/15 09:34:56;;;;;;;9.33;8.43;;;3.90;30.00;;;;;;5013260;28;20847;-65
2021/01/15 09:37:22;;;;;;;9.70;8.80;;;3.90;29.70;;;;;;5013091;28;20588;-65
2021/01/15 09:39:47;;;;;;;10.63;8.80;;;4.10;30.10;;;;;;5012962;28;20184;-65
2021/01/15 09:42:14;;;;;;;11.50;8.93;;;4.10;29.50;;;;;;5013281;28;20237;-64
2021/01/15 09:44:40;;;;;;;9.70;6.93;;;4.30;29.70;;;;;;5012931;28;20540;-64
2021/01/15 09:47:06;;;;;;;9.20;8.07;;;4.30;29.10;;;;;;5012811;28;20496;-65
2021/01/15 09:49:33;;;;;;;9.17;7.80;;;4.40;28.80;;;;;;5012782;28;21018;-65
2021/01/15 09:52:02;;;;;;;9.90;8.90;;;4.50;28.50;;;;;;5012870;28;20444;-66
2021/01/15 09:54:31;;;;;;;8.40;7.67;;;4.50;28.50;;;;;;5012403;28;20941;-65
2021/01/15 09:56:57;;;;;;;10.60;9.00;;;4.30;28.40;;;;;;5012487;28;20792;-65
2021/01/15 09:59:22;;;;;;;9.20;7.93;;;4.30;28.40;;;;;;5012576;28;20420;-66
2021/01/15 10:01:49;;;;;;;9.17;8.37;;;4.50;28.80;;;;;;5012634;28;20201;-64
2021/01/15 10:04:16;;;;;;;10.10;8.23;;;4.70;28.90;;;;;;5012737;28;20173;-65
2021/01/15 10:06:44;;;;;;;10.43;9.17;;;4.70;28.10;;;;;;5012387;28;20428;-65
2021/01/15 10:09:12;;;;;;;11.37;10.23;;;4.60;28.30;;;;;;5012151;28;20757;-65
2021/01/15 10:11:39;;;;;;;10.07;8.90;;;4.50;28.80;;;;;;5012249;28;20547;-64
2021/01/15 10:14:07;;;;;;;11.47;9.47;;;4.60;29.10;;;;;;5012200;28;20408;-64
2021/01/15 10:16:40;;;;;;;10.90;8.97;;;4.80;28.70;;;;;;5012263;28;20856;-65
2021/01/15 10:19:06;;;;;;;9.57;8.73;;;4.60;28.60;;;;;;5011978;28;20486;-64
2021/01/15 10:21:32;;;;;;;11.03;9.73;;;4.50;29.20;;;;;;5011938;28;21100;-64
2021/01/15 10:23:59;;;;;;;11.60;10.60;;;4.50;29.40;;;;;;5012062;28;20440;-66
2021/01/15 10:26:26;;;;;;;9.47;8.57;;;4.50;29.30;;;;;;5012703;28;20420;-68
2021/01/15 10:28:57;;;;;;;11.00;9.90;;;4.50;29.10;;;;;;5011800;28;20400;-66
2021/01/15 10:31:33;;;;;;;10.57;9.47;;;4.40;29.60;;;;;;5012160;28;20419;-65
2021/01/15 10:34:00;;;;;;;13.77;12.00;;;4.50;29.30;;;;;;5011715;28;20415;-65
2021/01/15 10:36:27;;;;;;;10.10;9.17;;;4.50;29.10;;;;;;5011683;28;20424;-64
2021/01/15 10:38:53;;;;;;;12.60;11.40;;;4.50;29.30;;;;;;5011455;28;20463;-64
2021/01/15 10:41:31;;;;;;;10.77;9.80;;;4.30;30.00;;;;;;5011690;28;20750;-65
2021/01/15 10:43:58;;;;;;;10.30;9.30;;;4.50;29.40;;;;;;5011793;28;20184;-65
2021/01/15 10:46:41;;;;;;;10.00;9.10;;;4.60;29.20;;;;;;5011558;28;20849;-66
2021/01/15 10:49:09;;;;;;;10.60;9.53;;;4.60;29.30;;;;;;5011511;28;20407;-65
2021/01/15 10:51:35;;;;;;;10.90;9.90;;;4.60;29.40;;;;;;5011826;28;20424;-65
2021/01/15 10:54:00;;;;;;;10.60;9.50;;;4.70;29.20;;;;;;5012051;28;20470;-65
2021/01/15 10:56:34;;;;;;;11.73;10.53;;;4.70;28.60;;;;;;5011528;28;20530;-66
2021/01/15 10:59:00;;;;;;;11.30;9.97;;;4.70;29.10;;;;;;5011472;28;20396;-66
2021/01/15 11:01:33;;;;;;;12.53;11.33;;;4.70;29.50;;;;;;5011423;28;20463;-63
2021/01/15 11:03:59;;;;;;;11.60;10.00;;;4.70;29.70;;;;;;5011614;28;20516;-66
2021/01/15 11:06:24;;;;;;;10.70;9.70;;;4.90;28.80;;;;;;5011616;28;20659;-66
2021/01/15 11:08:50;;;;;;;10.77;9.77;;;4.70;29.20;;;;;;5011281;28;20534;-65
2021/01/15 11:11:15;;;;;;;13.67;12.23;;;4.80;28.70;;;;;;5011360;28;20374;-65
2021/01/15 11:13:41;;;;;;;11.33;8.87;;;4.50;29.10;;;;;;5011171;28;20188;-65
2021/01/15 11:16:14;;;;;;;18.17;11.37;;;4.70;29.10;;;;;;5011422;28;20192;-65
2021/01/15 11:18:40;;;;;;;11.53;10.43;;;4.70;29.30;;;;;;5011512;28;20256;-65
2021/01/15 11:21:06;;;;;;;10.80;9.70;;;4.90;29.00;;;;;;5010986;28;20456;-64
2021/01/15 11:23:32;;;;;;;11.47;10.47;;;4.90;28.80;;;;;;5010797;28;20438;-65
2021/01/15 11:25:57;;;;;;;11.17;10.17;;;4.90;28.80;;;;;;5010556;28;20197;-64
2021/01/15 11:28:23;;;;;;;15.00;11.53;;;4.80;28.70;;;;;;5011108;28;20412;-65
2021/01/15 11:30:48;;;;;;;13.27;10.63;;;4.80;28.70;;;;;;5011104;28;20209;-65
2021/01/15 11:33:14;;;;;;;12.27;11.10;;;4.90;29.40;;;;;;5010994;28;20636;-64
2021/01/15 11:35:40;;;;;;;11.63;10.50;;;4.90;29.30;;;;;;5010812;28;20197;-65
2021/01/15 11:38:05;;;;;;;13.00;11.27;;;5.00;28.40;;;;;;5010632;28;20181;-66
2021/01/15 11:40:31;;;;;;;11.33;10.27;;;4.90;28.80;;;;;;5010815;28;20201;-65
2021/01/15 11:42:58;;;;;;;10.40;9.30;;;4.80;28.20;;;;;;5010858;28;20174;-65
2021/01/15 11:45:24;;;;;;;12.10;10.83;;;5.00;28.40;;;;;;5010644;28;20189;-65
2021/01/15 11:47:51;;;;;;;10.93;9.83;;;5.10;28.30;;;;;;5010541;28;20440;-66
2021/01/15 11:50:17;;;;;;;10.30;9.37;;;5.00;28.50;;;;;;5010859;28;20420;-66
2021/01/15 11:52:43;;;;;;;10.80;9.70;;;5.10;27.70;;;;;;5010823;28;20409;-66
2021/01/15 11:55:09;;;;;;;11.40;10.30;;;5.20;27.20;;;;;;5010657;28;20420;-67
2021/01/15 11:57:35;;;;;;;10.20;9.20;;;5.10;28.20;;;;;;5010581;28;20181;-67
2021/01/15 12:00:00;;;;;;;10.03;9.13;;;5.10;27.40;;;;;;5010390;28;20961;-66
2021/01/15 12:02:29;;;;;;;9.37;8.67;;;5.30;27.40;;;;;;5010531;28;20200;-67
2021/01/15 12:04:54;;;;;;;11.13;9.87;;;5.20;27.20;;;;;;5010769;28;20566;-66
2021/01/15 12:07:20;;;;;;;9.63;8.70;;;5.30;27.00;;;;;;5010547;28;20409;-67
2021/01/15 12:09:45;;;;;;;9.90;8.83;;;5.30;27.40;;;;;;5010701;28;20236;-66
2021/01/15 12:12:11;;;;;;;10.40;9.30;;;5.40;29.10;;;;;;5010652;28;20185;-67
2021/01/15 12:14:36;;;;;;;10.30;9.40;;;5.30;27.20;;;;;;5010237;28;20189;-66
2021/01/15 12:17:02;;;;;;;9.53;8.63;;;5.30;27.10;;;;;;5010732;28;20182;-65
2021/01/15 12:19:27;;;;;;;9.37;8.57;;;5.40;26.90;;;;;;5010695;28;20456;-65
2021/01/15 12:21:53;;;;;;;9.43;8.53;;;5.40;26.90;;;;;;5010448;28;20205;-64
2021/01/15 12:24:20;;;;;;;9.23;8.40;;;5.30;26.70;;;;;;5010359;28;20252;-66
2021/01/15 12:26:46;;;;;;;10.67;9.57;;;5.40;26.50;;;;;;5010566;28;20197;-65
2021/01/15 12:29:11;;;;;;;10.40;9.30;;;5.60;26.50;;;;;;5010245;28;20408;-65
2021/01/15 12:31:37;;;;;;;10.67;9.67;;;5.50;26.80;;;;;;5010519;28;20493;-65
2021/01/15 12:34:03;;;;;;;17.60;10.50;;;5.50;27.40;;;;;;5010164;28;20519;-65
2021/01/15 12:36:29;;;;;;;11.00;10.00;;;5.40;27.60;;;;;;5010459;28;20573;-65
2021/01/15 12:38:54;;;;;;;11.60;10.50;;;5.50;27.50;;;;;;5011947;28;20421;-65
2021/01/15 12:41:20;;;;;;;9.83;8.93;;;5.40;27.60;;;;;;5013871;28;20499;-64
2021/01/15 12:43:46;;;;;;;8.40;7.60;;;5.50;27.00;;;;;;5013699;28;20180;-65
2021/01/15 12:46:12;;;;;;;9.83;8.83;;;5.50;26.40;;;;;;5013741;28;20193;-67
2021/01/15 12:48:38;;;;;;;8.53;7.73;;;5.40;26.40;;;;;;5013761;28;20411;-66
2021/01/15 12:51:05;;;;;;;8.20;7.50;;;5.40;26.40;;;;;;5013806;28;20518;-67
2021/01/15 12:53:31;;;;;;;9.37;8.37;;;5.50;26.20;;;;;;5013778;28;20187;-66
2021/01/15 12:55:56;;;;;;;10.00;9.10;;;5.60;26.10;;;;;;5013501;28;20823;-64
2021/01/15 12:58:22;;;;;;;9.63;8.80;;;5.80;26.10;;;;;;5012681;28;20656;-65
2021/01/15 13:00:48;;;;;;;10.87;9.80;;;5.60;26.30;;;;;;5013449;28;20205;-65